Time;durP1;ratioP1;P1;durP2;ratioP2;P2;SDS_P1;SDS_P2;PMS_P1;PMS_P2;Temp;Humidity;BMP_temperature;BMP_pressure;BME280_temperature;BME280_humidity;BME280_pressure;Samples;Min_cycle;Max_cycle;Signal;HPM_P1;HPM_P2
2022/07/10 00:01:08;;;;;;;5.78;3.83;;;15.50;99.90;;;15.27;100.00;97887.22;4952983;28;20491;-46
2022/07/10 00:03:33;;;;;;;5.13;3.20;;;15.50;99.90;;;15.32;100.00;97876.34;4953725;28;20045;-46
2022/07/10 00:05:59;;;;;;;3.70;2.80;;;15.60;99.90;;;15.37;100.00;97881.44;4955797;28;20325;-45
2022/07/10 00:08:25;;;;;;;3.15;2.85;;;15.60;99.90;;;15.40;100.00;97884.81;4957537;28;20097;-46
2022/07/10 00:10:50;;;;;;;4.45;3.35;;;15.60;99.90;;;15.41;100.00;97886.50;4950011;28;20046;-47
2022/07/10 00:13:16;;;;;;;3.20;2.90;;;15.60;99.90;;;15.42;100.00;97877.63;4951812;28;20562;-44
2022/07/10 00:15:43;;;;;;;3.85;3.08;;;15.60;99.90;;;15.47;100.00;97880.06;4951854;28;20042;-46
2022/07/10 00:18:09;;;;;;;4.72;3.50;;;15.60;99.90;;;15.51;100.00;97876.31;4956826;28;20041;-47
2022/07/10 00:20:36;;;;;;;3.85;3.22;;;15.70;99.90;;;15.53;100.00;97873.59;4952867;28;20035;-48
2022/07/10 00:23:01;;;;;;;5.45;3.28;;;15.70;99.90;;;15.55;100.00;97875.22;4957882;28;20031;-46
2022/07/10 00:25:28;;;;;;;3.67;3.15;;;15.80;99.90;;;15.59;100.00;97874.13;4956513;28;20679;-47
2022/07/10 00:27:53;;;;;;;4.82;2.90;;;15.80;99.90;;;15.61;100.00;97869.63;4957393;28;20491;-47
2022/07/10 00:30:19;;;;;;;3.25;2.92;;;15.80;99.90;;;15.59;100.00;97862.63;4960638;28;20089;-46
2022/07/10 00:32:45;;;;;;;3.58;2.63;;;15.90;99.90;;;15.62;100.00;97871.31;4955017;28;20094;-47
2022/07/10 00:35:10;;;;;;;3.13;2.65;;;15.80;99.90;;;15.63;100.00;97866.84;4956411;28;20062;-45
2022/07/10 00:37:36;;;;;;;5.72;3.10;;;15.80;99.90;;;15.63;100.00;97869.50;4951691;28;20912;-48
2022/07/10 00:40:04;;;;;;;3.08;2.78;;;15.80;99.90;;;15.67;100.00;97871.09;4959026;28;20041;-45
2022/07/10 00:42:30;;;;;;;2.92;2.50;;;15.80;99.90;;;15.66;100.00;97866.72;4951573;28;20043;-45
2022/07/10 00:44:55;;;;;;;3.20;2.90;;;15.90;99.90;;;15.66;100.00;97864.91;4955469;28;20400;-47
2022/07/10 00:47:22;;;;;;;3.03;2.72;;;15.90;99.90;;;15.63;100.00;97864.19;4951187;28;20031;-46
2022/07/10 00:49:48;;;;;;;6.78;3.40;;;15.90;99.90;;;15.63;100.00;97872.16;4960215;28;20023;-48
2022/07/10 00:52:16;;;;;;;3.33;2.90;;;15.90;99.90;;;15.59;100.00;97871.47;4946970;28;20549;-46
2022/07/10 00:54:45;;;;;;;3.42;2.58;;;15.80;99.90;;;15.48;100.00;97864.97;4952489;28;20031;-46
2022/07/10 00:57:14;;;;;;;3.35;3.05;;;15.80;99.90;;;15.42;100.00;97869.66;4955858;28;20038;-46
2022/07/10 00:59:40;;;;;;;3.20;2.85;;;15.60;99.90;;;15.27;100.00;97857.09;4950283;28;20090;-46
2022/07/10 01:02:07;;;;;;;3.33;3.03;;;15.60;99.90;;;15.22;100.00;97869.78;4956052;28;21246;-46
2022/07/10 01:04:33;;;;;;;3.83;3.22;;;15.50;99.90;;;15.12;100.00;97861.38;4951017;28;20236;-46
2022/07/10 01:06:59;;;;;;;5.90;3.58;;;15.30;99.90;;;15.05;100.00;97857.28;4938924;28;20034;-46
2022/07/10 01:09:26;;;;;;;3.47;3.17;;;15.30;99.90;;;15.00;100.00;97862.84;4962429;28;20046;-47
2022/07/10 01:11:52;;;;;;;3.80;3.40;;;15.20;99.90;;;14.92;100.00;97849.03;4956065;28;20153;-45
2022/07/10 01:14:18;;;;;;;3.70;3.22;;;15.10;99.90;;;14.83;100.00;97849.47;4948823;28;20027;-45
2022/07/10 01:16:44;;;;;;;4.45;3.42;;;15.10;99.90;;;14.69;100.00;97850.97;4938907;28;20027;-47
2022/07/10 01:19:09;;;;;;;3.65;3.25;;;15.00;99.90;;;14.60;100.00;97842.59;4954025;28;20558;-45
2022/07/10 01:21:37;;;;;;;4.03;3.20;;;14.90;99.90;;;14.44;100.00;97835.28;4958010;28;20521;-45
2022/07/10 01:24:08;;;;;;;4.88;3.63;;;14.80;99.90;;;14.47;100.00;97850.22;4958160;28;20114;-45
2022/07/10 01:26:35;;;;;;;4.27;3.67;;;14.70;99.90;;;14.47;100.00;97850.22;4959816;28;20110;-46
2022/07/10 01:29:06;;;;;;;5.50;3.95;;;14.70;99.90;;;14.48;100.00;97839.53;4958642;28;20042;-47
2022/07/10 01:31:33;;;;;;;4.03;3.55;;;14.70;99.90;;;14.50;100.00;97840.31;4962605;28;20035;-44
2022/07/10 01:34:05;;;;;;;4.20;3.80;;;14.80;99.90;;;14.49;100.00;97845.69;4958406;28;20117;-46
2022/07/10 01:36:31;;;;;;;7.00;4.20;;;14.80;99.90;;;14.49;100.00;97848.34;4938595;28;20023;-46
2022/07/10 01:38:58;;;;;;;4.05;3.65;;;14.80;99.90;;;14.50;100.00;97839.47;4958380;28;20469;-48
2022/07/10 01:41:25;;;;;;;3.95;3.50;;;14.80;99.90;;;14.51;100.00;97842.03;4956392;28;20047;-44
2022/07/10 01:43:52;;;;;;;4.68;3.90;;;14.80;99.90;;;14.50;100.00;97839.47;4952258;28;20031;-46
2022/07/10 01:46:18;;;;;;;5.40;4.05;;;14.80;99.90;;;14.48;100.00;97838.66;4957015;28;20030;-45
2022/07/10 01:48:43;;;;;;;4.80;3.63;;;14.70;99.90;;;14.41;100.00;97831.91;4956065;28;20538;-45
2022/07/10 01:51:11;;;;;;;5.18;4.38;;;14.70;99.90;;;14.35;100.00;97833.03;4960137;28;20043;-45
2022/07/10 01:53:38;;;;;;;5.95;3.78;;;14.60;99.90;;;14.22;100.00;97830.09;4955426;28;20059;-47
2022/07/10 01:56:07;;;;;;;5.43;4.03;;;14.50;99.90;;;14.20;100.00;97836.41;4957662;28;20157;-44
2022/07/10 01:58:34;;;;;;;6.00;4.55;;;14.50;99.90;;;14.13;100.00;97841.13;4959484;28;20120;-45
2022/07/10 02:01:00;;;;;;;9.85;6.82;;;14.40;99.90;;;14.12;100.00;97842.91;4959725;28;20269;-44
2022/07/10 02:06:11;;;;;;;5.80;4.57;;;14.40;99.90;;;14.03;100.00;97845.97;4958663;28;20679;-48
2022/07/10 02:08:36;;;;;;;6.97;5.70;;;14.40;99.90;;;13.98;100.00;97849.72;4960845;28;20046;-47
2022/07/10 02:11:02;;;;;;;6.63;4.25;;;14.30;99.90;;;13.93;100.00;97849.94;4959750;28;20440;-45
2022/07/10 02:13:28;;;;;;;7.28;5.30;;;14.30;99.90;;;13.90;100.00;97850.06;4958500;28;20041;-46
2022/07/10 02:15:55;;;;;;;5.35;4.75;;;14.20;99.90;;;13.86;100.00;97845.84;4956263;28;20035;-46
2022/07/10 02:18:22;;;;;;;5.82;5.22;;;14.20;99.90;;;13.82;100.00;97839.81;4961163;28;20030;-45
2022/07/10 02:20:48;;;;;;;6.30;5.43;;;14.10;99.90;;;13.82;100.00;97847.75;4956572;28;20034;-46
2022/07/10 02:23:13;;;;;;;9.10;6.82;;;14.10;99.90;;;13.85;100.00;97849.41;4961113;28;20027;-43
2022/07/10 02:25:39;;;;;;;10.63;7.25;;;14.10;99.90;;;13.90;100.00;97842.97;4954269;28;20391;-44
2022/07/10 02:28:05;;;;;;;9.13;6.80;;;14.20;99.90;;;13.91;100.00;97847.34;4958245;28;20031;-45
2022/07/10 02:30:31;;;;;;;8.82;6.75;;;14.20;99.90;;;13.98;100.00;97847.97;4958187;28;20023;-43
2022/07/10 02:32:57;;;;;;;8.10;6.63;;;14.30;99.90;;;14.00;100.00;97846.09;4955371;28;23824;-47
2022/07/10 02:35:23;;;;;;;11.10;8.65;;;14.30;99.90;;;14.00;100.00;97842.56;4953092;28;20035;-45
2022/07/10 02:37:49;;;;;;;9.43;7.07;;;14.30;99.90;;;14.00;100.00;97851.41;4955435;28;20108;-43
2022/07/10 02:40:14;;;;;;;9.18;7.03;;;14.30;99.90;;;14.02;100.00;97859.28;4957081;28;20035;-43
2022/07/10 02:42:40;;;;;;;11.75;8.32;;;14.30;99.90;;;14.01;100.00;97868.16;4955921;28;20041;-45
2022/07/10 02:45:07;;;;;;;11.57;7.93;;;14.30;99.90;;;13.95;100.00;97856.03;4956010;28;20144;-46
2022/07/10 02:47:33;;;;;;;9.35;8.05;;;14.30;99.90;;;13.94;100.00;97864.91;4957928;28;20284;-44
2022/07/10 02:49:59;;;;;;;12.48;10.35;;;14.30;99.90;;;13.89;100.00;97862.47;4957198;28;20043;-47
2022/07/10 02:52:24;;;;;;;10.57;9.45;;;14.20;99.90;;;13.92;100.00;97874.72;4957422;28;20518;-47
2022/07/10 02:54:51;;;;;;;10.30;8.18;;;14.20;99.90;;;13.88;100.00;97867.84;4958426;28;20031;-43
2022/07/10 02:57:17;;;;;;;16.15;10.98;;;14.20;99.90;;;13.89;100.00;97872.19;4956326;28;20070;-46
2022/07/10 02:59:42;;;;;;;11.43;9.85;;;14.20;99.90;;;13.88;100.00;97873.13;4960663;28;20066;-45
2022/07/10 03:02:08;;;;;;;12.90;10.57;;;14.20;99.90;;;13.89;100.00;97866.88;4958798;28;20595;-47
2022/07/10 03:04:34;;;;;;;9.88;8.77;;;14.20;99.90;;;13.89;100.00;97873.06;4958602;28;20045;-47
2022/07/10 03:07:00;;;;;;;12.90;9.60;;;14.20;99.90;;;13.93;100.00;97868.50;4956314;28;20027;-44
2022/07/10 03:09:26;;;;;;;13.35;11.65;;;14.20;99.90;;;13.99;100.00;97870.03;4957467;28;20034;-46
2022/07/10 03:11:52;;;;;;;15.15;10.52;;;14.30;99.90;;;14.05;100.00;97883.00;4960056;28;20065;-45
2022/07/10 03:14:17;;;;;;;14.90;11.50;;;14.30;99.90;;;14.10;100.00;97867.75;4960341;28;20046;-45
2022/07/10 03:16:43;;;;;;;15.77;11.30;;;14.40;99.90;;;14.15;100.00;97870.22;4961153;28;20381;-46
2022/07/10 03:19:09;;;;;;;13.43;10.75;;;14.50;99.90;;;14.21;100.00;97876.13;4956937;28;20400;-46
2022/07/10 03:21:35;;;;;;;14.82;10.93;;;14.50;99.90;;;14.28;100.00;97874.94;4958140;28;20037;-44
2022/07/10 03:24:01;;;;;;;10.30;9.20;;;14.60;99.90;;;14.33;100.00;97880.88;4960104;28;20041;-45
2022/07/10 03:26:29;;;;;;;11.77;10.23;;;14.60;99.90;;;14.33;100.00;97869.41;4962106;28;20023;-47
2022/07/10 03:28:55;;;;;;;9.75;8.70;;;14.60;99.90;;;14.31;100.00;97871.25;4957781;28;20029;-45
2022/07/10 03:31:21;;;;;;;12.70;9.50;;;14.60;99.90;;;14.24;100.00;97870.66;4959665;28;20026;-45
2022/07/10 03:33:47;;;;;;;12.25;10.25;;;14.50;99.90;;;14.20;100.00;97873.53;4960045;28;20041;-46
2022/07/10 03:36:15;;;;;;;13.82;10.02;;;14.50;99.90;;;14.15;100.00;97880.84;4956848;28;20034;-44
2022/07/10 03:38:41;;;;;;;11.82;10.50;;;14.40;99.90;;;14.15;100.00;97876.38;4957709;28;20288;-47
2022/07/10 03:41:07;;;;;;;12.77;9.45;;;14.40;99.90;;;14.17;100.00;97873.66;4963044;28;20507;-47
2022/07/10 03:43:33;;;;;;;10.63;9.52;;;14.50;99.90;;;14.16;100.00;97883.44;4957526;28;20038;-46
2022/07/10 03:45:58;;;;;;;10.23;8.95;;;14.40;99.90;;;14.16;100.00;97877.22;4963365;28;20023;-43
2022/07/10 03:48:24;;;;;;;9.52;8.38;;;14.40;99.90;;;14.19;100.00;97879.75;4961410;28;20109;-44
2022/07/10 03:50:51;;;;;;;10.50;9.40;;;14.40;99.90;;;14.21;100.00;97875.25;4959211;28;20955;-47
2022/07/10 03:53:18;;;;;;;12.32;8.63;;;14.50;99.90;;;14.23;100.00;97868.97;4957805;28;20031;-45
2022/07/10 03:55:44;;;;;;;8.02;6.95;;;14.50;99.90;;;14.37;100.00;97870.13;4951308;28;20037;-45
2022/07/10 03:58:10;;;;;;;9.95;8.57;;;14.60;99.90;;;14.42;100.00;97870.78;4959078;28;20038;-46
2022/07/10 04:00:38;;;;;;;11.50;9.40;;;14.70;99.90;;;14.47;100.00;97868.78;4953603;28;20085;-43
2022/07/10 04:03:05;;;;;;;8.48;7.50;;;14.70;99.90;;;14.52;100.00;97870.31;4955170;28;20095;-46
2022/07/10 04:05:31;;;;;;;14.45;10.82;;;14.80;99.90;;;14.57;100.00;97871.88;4953220;28;20049;-43
2022/07/10 04:07:59;;;;;;;14.35;10.43;;;14.90;99.90;;;14.58;100.00;97869.19;4954187;28;20125;-46
2022/07/10 04:10:27;;;;;;;15.50;9.68;;;14.90;99.90;;;14.61;100.00;97876.16;4957441;28;20784;-46
2022/07/10 04:12:53;;;;;;;11.82;9.48;;;14.90;99.90;;;14.62;100.00;97867.25;4949805;28;20125;-43
2022/07/10 04:15:20;;;;;;;10.70;8.18;;;14.90;99.90;;;14.58;100.00;97847.94;4955764;28;20041;-46
2022/07/10 04:17:46;;;;;;;11.80;8.95;;;15.00;99.90;;;14.70;100.00;97873.94;4957891;28;20030;-45
2022/07/10 04:20:12;;;;;;;9.40;8.18;;;15.00;99.90;;;14.74;100.00;97868.50;4953806;28;20208;-46
2022/07/10 04:22:38;;;;;;;11.52;9.50;;;15.00;99.90;;;14.76;100.00;97867.47;4954130;28;20026;-43
2022/07/10 04:25:05;;;;;;;11.40;8.25;;;15.10;99.90;;;14.79;100.00;97867.34;4953525;28;20578;-44
2022/07/10 04:27:31;;;;;;;9.85;8.00;;;15.10;99.90;;;14.77;100.00;97876.28;4950394;28;20035;-47
2022/07/10 04:29:57;;;;;;;11.70;8.30;;;15.10;99.90;;;14.84;100.00;97883.94;4952654;28;20050;-45
2022/07/10 04:32:23;;;;;;;11.57;8.82;;;15.10;99.90;;;14.83;100.00;97871.56;4968164;23;20022;-40
2022/07/10 04:34:48;;;;;;;10.38;7.45;;;15.10;99.90;;;14.84;100.00;97875.06;4965523;28;20066;-40
2022/07/10 04:37:14;;;;;;;9.52;7.70;;;15.10;99.90;;;14.82;100.00;97877.84;4968082;28;20027;-40
2022/07/10 04:39:41;;;;;;;9.25;7.65;;;15.10;99.90;;;14.69;100.00;97847.47;4967899;28;20034;-40
2022/07/10 04:42:07;;;;;;;8.55;7.40;;;15.10;99.90;;;14.79;100.00;97874.47;4962449;28;20070;-40
2022/07/10 04:44:34;;;;;;;8.68;6.78;;;15.00;99.90;;;14.77;100.00;97871.88;4956355;28;20526;-40
2022/07/10 04:47:00;;;;;;;10.38;7.00;;;15.00;99.90;;;14.75;100.00;97867.53;4956917;28;20479;-40
2022/07/10 04:49:26;;;;;;;7.70;6.90;;;15.00;99.90;;;14.75;100.00;97881.72;4957349;28;20044;-40
2022/07/10 04:51:52;;;;;;;13.77;8.65;;;15.00;99.90;;;14.90;100.00;97877.47;4951967;28;20038;-40
2022/07/10 04:54:18;;;;;;;12.93;7.45;;;15.10;99.90;;;14.96;100.00;97885.13;4955683;28;20295;-40
2022/07/10 04:56:44;;;;;;;8.70;7.13;;;15.20;99.90;;;14.93;100.00;97881.75;4956073;28;20391;-40
2022/07/10 04:59:10;;;;;;;8.35;6.40;;;15.20;99.90;;;14.94;100.00;97888.81;4958262;28;20042;-40
2022/07/10 05:01:37;;;;;;;9.80;5.70;;;15.20;99.90;;;14.96;100.00;97885.13;4960844;28;20610;-39
2022/07/10 05:04:03;;;;;;;7.53;5.88;;;15.20;99.90;;;15.06;100.00;97881.13;4956144;28;20315;-40
2022/07/10 05:06:29;;;;;;;9.18;6.28;;;15.30;99.90;;;15.23;100.00;97890.06;4961544;28;20026;-40
2022/07/10 05:08:55;;;;;;;8.88;5.30;;;15.40;99.90;;;15.36;100.00;97880.59;4961584;28;20026;-40
2022/07/10 05:11:22;;;;;;;6.53;5.88;;;15.60;99.90;;;15.50;100.00;97893.19;4963351;28;20291;-40
2022/07/10 05:13:49;;;;;;;6.35;4.72;;;15.70;99.90;;;15.78;100.00;97900.69;4958695;28;20076;-40
2022/07/10 05:16:16;;;;;;;5.03;3.72;;;15.90;99.90;;;16.10;100.00;97894.69;4961072;28;20055;-40
2022/07/10 05:18:42;;;;;;;8.77;3.80;;;16.20;99.90;;;16.18;100.00;97898.66;4941268;28;20558;-40
2022/07/10 05:21:08;;;;;;;5.55;3.47;;;16.30;99.90;;;16.20;100.00;97899.47;4959283;28;20043;-40
2022/07/10 05:23:35;;;;;;;5.13;3.88;;;16.40;99.90;;;16.06;100.00;97899.31;4962077;28;20038;-40
2022/07/10 05:26:01;;;;;;;4.03;3.45;;;16.40;99.90;;;16.14;100.00;97894.44;4950092;28;20470;-39
2022/07/10 05:28:26;;;;;;;3.92;3.53;;;16.30;99.90;;;16.87;100.00;97893.31;4962622;28;20033;-40
2022/07/10 05:30:52;;;;;;;5.30;3.42;;;16.60;99.90;;;17.16;100.00;97900.56;4962881;28;20050;-40
2022/07/10 05:33:18;;;;;;;6.30;3.42;;;16.90;99.90;;;17.62;100.00;97905.13;4958325;28;20042;-40
2022/07/10 05:35:44;;;;;;;4.72;2.97;;;17.10;99.90;;;17.74;97.92;97899.03;4959772;28;20078;-40
2022/07/10 05:38:10;;;;;;;7.00;3.20;;;17.30;99.90;;;17.53;99.56;97900.28;4959708;28;20038;-40
2022/07/10 05:40:37;;;;;;;5.47;2.97;;;17.30;99.90;;;17.44;99.41;97903.47;4964995;28;20051;-40
2022/07/10 05:43:03;;;;;;;4.65;2.90;;;17.20;99.90;;;17.15;98.36;97900.66;4959352;28;20037;-40
2022/07/10 05:45:29;;;;;;;4.82;2.70;;;17.10;99.90;;;17.06;98.58;97911.81;4957078;28;20042;-40
2022/07/10 05:47:55;;;;;;;4.13;2.03;;;17.00;99.90;;;17.18;100.00;97913.81;4942996;28;20364;-40
2022/07/10 05:50:21;;;;;;;3.60;2.30;;;17.10;99.90;;;17.20;97.82;97919.06;4962783;28;20053;-40
2022/07/10 05:52:46;;;;;;;4.50;2.40;;;17.20;99.90;;;17.20;97.99;97919.91;4955052;28;20467;-40
2022/07/10 05:55:12;;;;;;;3.75;2.33;;;17.30;99.90;;;17.23;98.36;97924.19;4958208;28;20061;-40
2022/07/10 05:57:38;;;;;;;4.07;2.38;;;17.30;99.90;;;17.17;96.01;97936.06;4962397;28;20594;-40
2022/07/10 06:00:08;;;;;;;3.35;2.25;;;17.30;99.90;;;17.03;96.98;97935.97;4955634;28;20093;-40
2022/07/10 06:02:34;;;;;;;3.85;2.33;;;17.30;99.90;;;16.94;96.78;97937.31;4943062;28;20117;-39
2022/07/10 06:05:00;;;;;;;2.10;1.70;;;17.20;99.90;;;16.78;94.47;97934.63;4955108;28;20494;-39
2022/07/10 06:07:26;;;;;;;4.05;2.00;;;17.10;99.90;;;16.69;94.17;97940.41;4953272;28;20537;-40
2022/07/10 06:09:53;;;;;;;5.20;2.00;;;17.00;99.90;;;16.62;94.23;97931.91;4957198;28;20022;-39
2022/07/10 06:12:18;;;;;;;5.40;2.08;;;16.90;99.90;;;16.56;96.45;97925.09;4955558;28;20061;-40
2022/07/10 06:14:44;;;;;;;5.22;2.10;;;16.90;99.90;;;16.50;94.98;97936.06;4949828;28;20475;-40
2022/07/10 06:17:10;;;;;;;6.72;1.77;;;16.80;99.90;;;16.50;94.52;97924.56;4958667;28;20038;-40
2022/07/10 06:19:36;;;;;;;4.20;2.20;;;16.80;99.90;;;16.55;93.10;97939.34;4958439;28;20038;-39
2022/07/10 06:24:46;;;;;;;4.05;1.50;;;16.90;99.90;;;16.82;93.72;97935.31;4958049;28;20045;-40
2022/07/10 06:27:11;;;;;;;3.03;1.90;;;17.10;99.90;;;16.89;92.01;97936.72;4955725;28;20793;-40
2022/07/10 06:29:37;;;;;;;3.13;2.00;;;17.20;99.90;;;16.99;91.65;97943.25;4960724;28;20027;-40
2022/07/10 06:32:04;;;;;;;2.70;1.90;;;17.30;99.90;;;17.03;93.36;97946.63;4959721;28;20070;-40
2022/07/10 06:34:30;;;;;;;4.95;1.85;;;17.30;99.90;;;17.02;91.11;97940.44;4954440;28;20039;-40
2022/07/10 06:36:56;;;;;;;6.90;1.90;;;17.30;99.90;;;16.92;88.63;97944.53;4959366;28;20070;-40
2022/07/10 06:39:21;;;;;;;4.10;1.92;;;17.20;99.90;;;16.89;87.81;97950.06;4953866;28;20023;-40
2022/07/10 06:41:47;;;;;;;3.90;1.98;;;17.20;99.90;;;16.90;89.13;97963.25;4955605;28;20446;-40
2022/07/10 06:44:13;;;;;;;5.20;1.73;;;17.20;99.90;;;16.94;91.03;97953.31;4942100;28;20038;-40
2022/07/10 06:46:38;;;;;;;4.13;1.70;;;17.20;99.90;;;17.10;90.41;97961.31;4954690;28;20479;-40
2022/07/10 06:49:04;;;;;;;2.42;1.50;;;17.30;99.90;;;17.24;89.85;97952.59;4956397;28;20069;-40
2022/07/10 06:51:31;;;;;;;4.57;2.00;;;17.40;99.90;;;17.21;87.32;97955.41;4944904;28;20057;-40
2022/07/10 06:53:57;;;;;;;3.25;1.75;;;17.50;99.90;;;17.20;88.43;97956.38;4955557;28;20077;-40
2022/07/10 06:56:23;;;;;;;3.05;2.03;;;17.50;99.90;;;17.16;88.20;97950.34;4956647;28;20026;-40
2022/07/10 06:58:49;;;;;;;4.82;1.90;;;17.40;99.90;;;17.06;85.66;97947.31;4954135;28;20035;-40
2022/07/10 07:01:14;;;;;;;2.67;1.80;;;17.40;99.90;;;17.06;88.78;97957.97;4959990;28;20475;-39
2022/07/10 07:03:40;;;;;;;3.63;1.42;;;17.40;99.90;;;17.15;87.07;97961.94;4962518;28;20049;-40
2022/07/10 07:06:06;;;;;;;7.55;1.85;;;17.40;99.90;;;17.31;84.98;97960.16;4958363;28;20706;-40
2022/07/10 07:08:31;;;;;;;4.85;1.48;;;17.60;99.90;;;17.56;83.59;97956.97;4956077;28;20082;-40
2022/07/10 07:10:57;;;;;;;5.10;1.60;;;17.80;99.90;;;17.66;83.55;97957.34;4958528;28;20027;-40
2022/07/10 07:13:23;;;;;;;2.72;1.38;;;17.90;99.90;;;17.70;81.44;97961.53;4955919;28;20070;-40
2022/07/10 07:16:04;;;;;;;3.78;1.60;;;17.90;99.90;;;17.72;80.48;97962.31;4955028;28;20256;-40
2022/07/10 07:18:35;;;;;;;5.40;1.42;;;18.00;99.90;;;17.57;78.80;97971.19;4946151;28;20031;-39
2022/07/10 07:23:45;;;;;;;3.10;1.20;;;17.90;99.90;;;17.60;82.05;97968.31;4951163;28;20609;-40
2022/07/10 07:26:10;;;;;;;6.93;1.77;;;17.90;99.90;;;17.78;78.84;97974.44;4946724;28;20117;-40
2022/07/10 07:28:36;;;;;;;5.47;1.50;;;18.10;99.90;;;17.99;80.23;97975.03;4930083;28;20043;-40
2022/07/10 07:31:02;;;;;;;4.07;1.50;;;18.30;99.90;;;18.05;78.20;97989.84;4953973;28;20716;-39
2022/07/10 07:33:27;;;;;;;3.35;1.73;;;18.40;99.90;;;18.09;75.63;97991.41;4955292;28;20027;-39
2022/07/10 07:35:53;;;;;;;3.22;1.50;;;18.40;99.90;;;18.16;71.67;97981.19;4941795;28;20082;-40
2022/07/10 07:38:19;;;;;;;1.75;1.10;;;18.50;99.90;;;18.18;73.51;97977.50;4947361;28;20551;-39
2022/07/10 07:40:45;;;;;;;3.05;1.50;;;18.50;99.90;;;18.08;73.53;97979.00;4947052;28;20045;-39
2022/07/10 07:43:11;;;;;;;3.22;1.50;;;18.50;99.90;;;18.05;75.42;97988.03;4949395;28;20049;-40
2022/07/10 07:45:37;;;;;;;1.88;1.10;;;18.40;99.90;;;18.04;73.92;97975.63;4957191;28;20041;-39
2022/07/10 07:48:03;;;;;;;6.13;1.40;;;18.40;99.90;;;18.02;72.82;97974.88;4958533;28;20027;-39
2022/07/10 07:50:32;;;;;;;2.63;1.33;;;18.40;99.90;;;18.12;73.14;97977.84;4961657;28;20037;-39
2022/07/10 07:52:59;;;;;;;1.88;1.13;;;18.50;99.90;;;18.23;75.58;97982.56;4961888;28;20113;-39
2022/07/10 07:55:25;;;;;;;2.90;1.35;;;18.50;99.90;;;18.31;72.22;97988.31;4960386;28;20033;-39
2022/07/10 07:57:53;;;;;;;3.25;1.42;;;18.70;99.90;;;18.44;72.31;97983.09;4960919;28;22759;-40
2022/07/10 08:00:22;;;;;;;2.70;1.30;;;18.80;99.90;;;18.41;70.89;97978.81;4948547;28;20309;-39
2022/07/10 08:02:49;;;;;;;5.60;1.83;;;18.90;99.90;;;18.56;71.71;97977.03;4947084;28;20550;-40
2022/07/10 08:05:16;;;;;;;3.45;1.00;;;18.90;99.90;;;18.56;67.48;97970.84;4943844;28;20158;-40
2022/07/10 08:07:48;;;;;;;3.13;1.20;;;18.80;99.90;;;18.30;66.47;97976.78;4947371;28;20054;-40
2022/07/10 08:10:16;;;;;;;;;;;18.70;99.90;;;18.27;68.13;97976.97;4947802;28;20034;-40
2022/07/10 08:12:43;;;;;;;2.95;1.13;;;18.60;99.90;;;18.49;68.01;97981.88;4946726;28;19933;-40
2022/07/10 08:15:11;;;;;;;3.17;1.20;;;18.70;99.90;;;18.69;66.33;97977.16;4947260;28;20031;-40
2022/07/10 08:17:37;;;;;;;3.35;1.15;;;18.90;99.90;;;18.78;64.25;97971.25;4949658;28;20043;-40
2022/07/10 08:20:05;;;;;;;3.42;1.30;;;19.00;99.90;;;18.86;62.47;97974.34;4941021;28;20073;-40
2022/07/10 08:22:32;;;;;;;2.50;1.25;;;19.10;99.90;;;18.90;66.44;97972.34;4942477;28;20035;-40
2022/07/10 08:24:58;;;;;;;6.20;1.30;;;19.20;99.90;;;18.73;62.74;97969.81;4942306;28;20027;-40
2022/07/10 08:27:24;;;;;;;2.03;1.25;;;19.20;99.90;;;18.79;64.58;97975.66;4944944;28;20064;-39
2022/07/10 08:29:50;;;;;;;3.63;1.13;;;19.10;99.90;;;18.78;66.40;97960.56;4944409;28;20510;-40
2022/07/10 08:32:15;;;;;;;4.03;1.35;;;19.20;99.90;;;18.83;62.42;97968.34;4932812;28;20042;-41
2022/07/10 08:34:41;;;;;;;3.03;1.17;;;19.30;99.90;;;19.04;64.36;97961.66;4948883;28;20197;-40
2022/07/10 08:37:07;;;;;;;5.53;1.17;;;19.30;99.90;;;19.30;64.77;97956.47;4946969;28;20441;-41
2022/07/10 08:39:33;;;;;;;3.67;1.38;;;19.60;99.90;;;19.34;60.72;97954.47;4950520;28;20038;-41
2022/07/10 08:42:00;;;;;;;3.92;1.33;;;19.60;99.90;;;19.20;62.98;97963.34;4954453;28;20117;-41
2022/07/10 08:44:26;;;;;;;2.97;1.10;;;19.60;99.90;;;19.30;61.88;97958.28;4950448;28;20038;-41
2022/07/10 08:46:52;;;;;;;4.53;1.25;;;19.60;99.90;;;19.45;62.28;97958.19;4948212;28;20057;-41
2022/07/10 08:49:20;;;;;;;2.40;1.02;;;19.80;99.90;;;19.71;61.08;97955.63;4950889;28;20463;-41
2022/07/10 08:52:03;;;;;;;2.10;1.10;;;20.00;99.90;;;19.91;59.33;97951.66;4930045;28;20031;-42
2022/07/10 08:54:30;;;;;;;5.45;1.48;;;20.20;99.90;;;19.74;56.84;97960.81;4957698;28;20023;-41
2022/07/10 08:56:58;;;;;;;2.65;0.95;;;20.10;99.90;;;19.68;58.37;97949.63;4940461;28;20670;-42
2022/07/10 08:59:23;;;;;;;3.65;1.50;;;20.00;99.90;;;19.58;58.31;97958.25;4942447;28;20064;-41
2022/07/10 09:01:49;;;;;;;4.40;1.10;;;19.90;99.90;;;19.55;58.05;97953.09;4948965;28;20395;-41
2022/07/10 09:04:21;;;;;;;3.40;1.20;;;19.90;99.90;;;19.58;56.33;97965.41;4950687;28;20131;-41
2022/07/10 09:06:47;;;;;;;2.57;1.10;;;20.00;99.70;;;19.84;55.86;97961.06;4950799;28;20027;-40
2022/07/10 09:09:12;;;;;;;5.68;1.30;;;20.20;99.50;;;19.80;55.83;97967.56;4958659;28;20028;-41
2022/07/10 09:11:42;;;;;;;2.08;1.15;;;20.20;99.00;;;19.77;57.46;97962.41;4955679;28;20027;-41
2022/07/10 09:14:13;;;;;;;3.30;1.10;;;20.10;99.60;;;19.65;57.57;97966.75;4953374;28;20478;-40
2022/07/10 09:16:45;;;;;;;3.42;1.15;;;20.10;99.50;;;19.48;55.81;97958.94;4947724;28;20461;-41
2022/07/10 09:19:27;;;;;;;4.13;1.98;;;19.90;98.90;;;19.27;54.71;97968.22;4953652;28;20089;-41
2022/07/10 09:22:08;;;;;;;4.55;1.00;;;19.70;97.80;;;19.26;55.85;97965.66;4958165;28;20045;-41
2022/07/10 09:24:40;;;;;;;4.55;1.10;;;19.60;98.50;;;19.48;57.62;97970.47;4960005;28;20076;-41
2022/07/10 09:27:07;;;;;;;3.92;1.40;;;19.80;99.50;;;19.75;54.93;97967.88;4949059;28;20041;-41
2022/07/10 09:29:45;;;;;;;2.20;0.93;;;20.10;98.20;;;19.90;53.00;97973.19;4957136;28;20125;-42
2022/07/10 09:32:12;;;;;;;1.85;1.00;;;20.40;97.80;;;20.07;53.96;97972.06;4948675;28;20038;-41
2022/07/10 09:34:43;;;;;;;1.30;0.93;;;20.40;97.40;;;20.00;53.31;97969.78;4951601;28;20459;-42
2022/07/10 09:37:27;;;;;;;3.05;1.27;;;20.30;97.20;;;19.86;53.80;97972.50;4958972;28;20831;-42
2022/07/10 09:39:57;;;;;;;3.40;1.25;;;20.20;96.90;;;19.67;52.94;97963.94;4950362;28;20042;-41
2022/07/10 09:42:39;;;;;;;2.10;1.00;;;20.20;97.00;;;19.72;52.31;97977.88;4958280;28;20130;-41
2022/07/10 09:45:11;;;;;;;4.50;1.20;;;20.10;96.10;;;19.87;51.69;97968.91;4956474;28;20603;-40
2022/07/10 09:47:45;;;;;;;2.25;1.02;;;20.20;95.90;;;19.79;52.08;97976.56;4942628;28;20197;-41
2022/07/10 09:50:33;;;;;;;2.03;1.00;;;20.20;95.80;;;20.00;53.28;97966.25;4950938;28;20108;-41
2022/07/10 09:53:05;;;;;;;3.78;1.48;;;20.40;96.50;;;20.30;51.12;97967.84;4950503;28;20303;-41
2022/07/10 09:55:36;;;;;;;3.05;1.10;;;20.70;95.40;;;20.56;51.35;97974.09;4956471;28;20505;-40
2022/07/10 09:58:03;;;;;;;3.05;1.08;;;20.90;95.60;;;20.75;50.09;97977.28;4958871;28;20039;-42
2022/07/10 10:00:41;;;;;;;2.45;0.95;;;21.20;95.00;;;21.04;48.93;97974.38;4953435;28;20154;-40
2022/07/10 10:03:14;;;;;;;3.10;1.08;;;21.30;94.10;;;20.93;47.41;97971.59;4954966;28;20502;-40
2022/07/10 10:05:55;;;;;;;1.08;0.90;;;21.30;92.60;;;20.90;47.78;97969.97;4956232;28;20030;-41
2022/07/10 10:08:58;;;;;;;2.10;1.05;;;21.20;92.70;;;20.60;48.12;97975.59;4953800;28;20031;-41
2022/07/10 10:11:27;;;;;;;1.75;1.00;;;21.00;92.60;;;20.48;49.43;97971.97;4935140;28;20035;-41
2022/07/10 10:13:53;;;;;;;4.15;1.30;;;20.80;93.30;;;20.36;49.52;97967.44;4948234;28;20303;-41
2022/07/10 10:16:22;;;;;;;1.25;0.77;;;20.80;93.80;;;20.58;50.21;97969.50;4952237;28;20275;-40
2022/07/10 10:21:36;;;;;;;5.78;2.40;;;21.00;93.10;;;20.60;50.46;97963.09;4947748;28;20122;-41
2022/07/10 10:24:03;;;;;;;3.50;1.00;;;20.90;93.60;;;20.56;50.24;97960.69;4945830;28;20414;-41
2022/07/10 10:26:29;;;;;;;4.07;1.58;;;20.90;93.80;;;20.64;50.78;97957.53;4951221;28;20035;-40